createdAt,value
2018-11-28T00:02:28.690Z,76.41
2018-11-28T00:07:31.717Z,76.76
2018-11-28T00:12:34.761Z,76.87
2018-11-28T00:17:37.844Z,76.36
2018-11-28T00:22:41.192Z,76.14
2018-11-28T00:27:44.260Z,76.18
2018-11-28T00:32:47.327Z,76.08
2018-11-28T00:37:50.457Z,75.68
2018-11-28T00:42:53.506Z,76.00
2018-11-28T00:48:22.225Z,75.97
2018-11-28T00:53:25.264Z,76.22
2018-11-28T00:58:28.296Z,76.19
2018-11-28T01:03:31.347Z,75.95
2018-11-28T01:08:34.388Z,75.80
2018-11-28T01:13:37.472Z,76.04
2018-11-28T01:18:40.554Z,76.03
2018-11-28T01:23:43.596Z,76.17
2018-11-28T01:28:46.834Z,75.90
2018-11-28T01:33:49.693Z,75.94
2018-11-28T01:38:52.736Z,75.74
2018-11-28T01:43:55.806Z,75.53
2018-11-28T01:48:58.829Z,75.04
2018-11-28T01:54:01.890Z,75.29
2018-11-28T01:59:05.016Z,74.90
2018-11-28T02:04:08.033Z,74.85
2018-11-28T02:09:11.066Z,74.99
2018-11-28T02:14:14.096Z,74.54
2018-11-28T02:19:17.089Z,75.18
2018-11-28T02:24:20.178Z,75.26
2018-11-28T02:29:24.331Z,74.68
2018-11-28T02:34:26.331Z,74.45
2018-11-28T02:39:29.454Z,75.12
2018-11-28T02:44:32.596Z,74.95
2018-11-28T02:49:35.633Z,74.77
2018-11-28T02:54:38.685Z,74.86
2018-11-28T02:59:41.725Z,75.04
2018-11-28T03:04:44.802Z,75.18
2018-11-28T03:09:47.872Z,75.08
2018-11-28T03:14:50.973Z,74.79
2018-11-28T03:19:54.181Z,74.67
2018-11-28T03:24:57.237Z,74.59
2018-11-28T03:30:00.310Z,74.47
2018-11-28T03:35:03.719Z,74.14
2018-11-28T03:40:07.116Z,74.28
2018-11-28T03:45:12.974Z,74.94
2018-11-28T03:50:16.193Z,75.16
2018-11-28T03:55:25.847Z,75.26
2018-11-28T04:00:28.886Z,75.31
2018-11-28T04:05:31.960Z,75.46
2018-11-28T04:10:34.958Z,74.83
2018-11-28T04:15:37.969Z,75.21
2018-11-28T04:20:41.183Z,74.89
2018-11-28T04:25:44.338Z,75.19
2018-11-28T04:30:47.433Z,75.18
2018-11-28T04:35:50.450Z,75.13
2018-11-28T04:40:53.476Z,74.92
2018-11-28T04:45:56.513Z,75.40
2018-11-28T04:50:59.583Z,75.25
2018-11-28T04:56:02.697Z,75.71
2018-11-28T05:01:06.220Z,75.84
2018-11-28T05:06:09.233Z,75.07
2018-11-28T05:11:12.432Z,74.77
2018-11-28T05:16:15.455Z,75.88
2018-11-28T05:21:18.496Z,75.87
2018-11-28T05:26:21.509Z,75.99
2018-11-28T05:31:24.556Z,75.16
2018-11-28T05:36:27.595Z,75.60
2018-11-28T05:41:30.613Z,75.60
2018-11-28T05:46:33.679Z,75.16
2018-11-28T05:51:36.712Z,74.94
2018-11-28T05:56:39.899Z,74.49
2018-11-28T06:01:43.031Z,74.95
2018-11-28T06:06:46.076Z,74.84
2018-11-28T06:11:49.116Z,74.79
2018-11-28T06:16:52.117Z,75.28
2018-11-28T06:21:55.181Z,75.16
2018-11-28T06:26:58.218Z,75.19
2018-11-28T06:32:01.280Z,74.96
2018-11-28T06:37:04.569Z,74.99
2018-11-28T06:42:08.560Z,75.65
2018-11-28T06:47:10.709Z,75.12
2018-11-28T06:52:13.716Z,75.47
2018-11-28T06:57:16.729Z,75.00
2018-11-28T07:02:19.755Z,74.64
2018-11-28T07:07:22.781Z,74.85
2018-11-28T07:12:25.815Z,75.48
2018-11-28T07:17:28.912Z,74.97
2018-11-28T07:22:31.974Z,74.73
2018-11-28T07:27:35.093Z,74.95
2018-11-28T07:32:38.128Z,74.17
2018-11-28T07:37:41.160Z,74.31
2018-11-28T07:42:59.477Z,74.38
2018-11-28T07:48:08.878Z,74.23
2018-11-28T07:53:17.985Z,73.98
2018-11-28T07:58:21.002Z,74.40
2018-11-28T08:03:24.070Z,73.89
2018-11-28T08:08:27.176Z,73.72
2018-11-28T08:13:30.249Z,73.63
2018-11-28T08:18:33.281Z,74.03
2018-11-28T08:23:36.336Z,73.68
2018-11-28T08:28:39.452Z,73.92
2018-11-28T08:33:42.543Z,73.70
2018-11-28T08:38:45.623Z,73.33
2018-11-28T08:43:48.676Z,73.36
2018-11-28T08:48:51.701Z,73.55
2018-11-28T08:53:54.769Z,72.90
2018-11-28T08:58:57.850Z,73.22
2018-11-28T09:04:00.908Z,72.46
2018-11-28T09:09:06.100Z,72.65
2018-11-28T09:14:09.152Z,72.01
2018-11-28T09:19:12.192Z,72.32
2018-11-28T09:24:15.230Z,72.04
2018-11-28T09:29:18.291Z,72.45
2018-11-28T09:34:21.364Z,71.92
2018-11-28T09:39:24.473Z,71.53
2018-11-28T09:44:27.606Z,71.01
2018-11-28T09:49:30.637Z,70.42
2018-11-28T09:54:33.653Z,69.66
2018-11-28T09:59:36.662Z,70.28
2018-11-28T10:04:39.697Z,69.89
2018-11-28T10:09:42.695Z,70.32
2018-11-28T10:14:45.716Z,70.33
2018-11-28T10:19:48.712Z,70.21
2018-11-28T10:24:51.729Z,69.80
2018-11-28T10:29:54.773Z,69.33
2018-11-28T10:34:57.798Z,68.51
2018-11-28T10:40:00.825Z,68.27
2018-11-28T10:45:04.936Z,67.64
2018-11-28T10:50:12.480Z,67.21
2018-11-28T10:55:20.013Z,67.08
2018-11-28T11:00:31.618Z,67.36
2018-11-28T11:05:40.305Z,67.56
2018-11-28T11:10:49.211Z,67.62
2018-11-28T11:15:57.086Z,67.03
2018-11-28T11:21:00.201Z,67.44
2018-11-28T11:26:32.437Z,67.69
2018-11-28T11:31:35.469Z,67.36
2018-11-28T11:36:38.487Z,67.04
2018-11-28T11:41:41.584Z,66.88
2018-11-28T11:46:44.644Z,66.84
2018-11-28T11:51:47.724Z,66.64
2018-11-28T11:56:50.810Z,67.58
2018-11-28T12:01:54.839Z,67.59
2018-11-28T12:06:57.205Z,67.47
2018-11-28T12:12:00.206Z,67.02
2018-11-28T12:17:03.276Z,66.78
2018-11-28T12:22:06.964Z,66.80
2018-11-28T12:27:10.045Z,66.31
2018-11-28T12:32:13.144Z,66.12
2018-11-28T12:37:16.202Z,65.43
2018-11-28T12:42:19.248Z,65.75
2018-11-28T12:47:22.284Z,65.40
2018-11-28T12:52:25.302Z,64.29
2018-11-28T12:57:28.333Z,63.96
2018-11-28T13:02:32.065Z,64.61
2018-11-28T13:07:35.099Z,64.27
2018-11-28T13:12:38.160Z,64.46
2018-11-28T13:17:41.248Z,64.97
2018-11-28T13:22:45.243Z,65.13
2018-11-28T13:27:48.312Z,65.53
2018-11-28T13:32:52.823Z,66.22
2018-11-28T13:38:02.852Z,65.58
2018-11-28T13:43:06.209Z,66.53
2018-11-28T13:48:09.420Z,66.38
2018-11-28T13:53:16.684Z,66.33
2018-11-28T13:58:19.762Z,65.94
2018-11-28T14:03:22.815Z,65.87
2018-11-28T14:08:25.847Z,66.11
2018-11-28T14:13:28.916Z,66.50
2018-11-28T14:18:32.028Z,66.21
2018-11-28T14:23:35.128Z,66.87
2018-11-28T14:28:38.189Z,66.43
2018-11-28T14:33:41.192Z,66.66
2018-11-28T14:38:44.268Z,67.18
2018-11-28T14:43:47.290Z,67.87
2018-11-28T14:48:50.350Z,67.22
2018-11-28T14:53:54.214Z,67.92
2018-11-28T14:58:57.223Z,68.65
2018-11-28T15:04:00.275Z,68.05
2018-11-28T15:09:11.684Z,67.48
2018-11-28T15:14:14.716Z,67.79
2018-11-28T15:19:17.776Z,67.74
2018-11-28T15:24:20.816Z,67.41
2018-11-28T15:29:23.846Z,68.73
2018-11-28T15:34:26.950Z,68.28
2018-11-28T15:39:30.051Z,68.51
2018-11-28T15:44:33.064Z,68.22
2018-11-28T15:49:36.128Z,68.24
2018-11-28T15:54:39.151Z,67.70
2018-11-28T15:59:42.200Z,67.83
2018-11-28T16:04:45.229Z,68.13
2018-11-28T16:10:51.391Z,67.68
2018-11-28T16:15:56.660Z,67.78
2018-11-28T16:20:59.707Z,67.43
2018-11-28T16:26:02.792Z,67.49
2018-11-28T16:31:05.899Z,67.60
2018-11-28T16:36:09.491Z,68.25
2018-11-28T16:41:12.777Z,68.11
2018-11-28T16:46:15.894Z,68.71
2018-11-28T16:51:18.975Z,68.31
2018-11-28T16:56:22.023Z,68.93
2018-11-28T17:01:25.067Z,68.61
2018-11-28T17:06:28.153Z,68.23
2018-11-28T17:11:31.216Z,68.15
2018-11-28T17:16:34.272Z,68.07
2018-11-28T17:21:37.384Z,67.72
2018-11-28T17:26:40.483Z,66.94
2018-11-28T17:31:43.616Z,67.26
2018-11-28T17:36:46.792Z,67.33
2018-11-28T17:41:49.859Z,67.25
2018-11-28T17:46:52.944Z,67.28
2018-11-28T17:51:56.084Z,66.83
2018-11-28T17:56:59.125Z,67.26
2018-11-28T18:02:02.251Z,67.14
2018-11-28T18:07:05.715Z,67.30
2018-11-28T18:12:08.775Z,66.97
2018-11-28T18:17:11.812Z,66.83
2018-11-28T18:22:14.893Z,67.02
2018-11-28T18:27:17.962Z,67.07
2018-11-28T18:32:21.012Z,66.79
2018-11-28T18:37:24.385Z,66.78
2018-11-28T18:42:27.145Z,67.19
2018-11-28T18:47:30.268Z,66.85
2018-11-28T18:52:33.325Z,67.05
2018-11-28T18:57:36.610Z,67.19
2018-11-28T19:02:40.666Z,67.52
2018-11-28T19:07:43.748Z,67.49
2018-11-28T19:12:46.983Z,67.91
2018-11-28T19:17:50.361Z,67.54
2018-11-28T19:22:56.204Z,67.56
2018-11-28T19:27:59.281Z,67.92
2018-11-28T19:33:02.537Z,67.49
2018-11-28T19:38:09.386Z,67.39
2018-11-28T19:43:12.486Z,67.70
2018-11-28T19:48:15.860Z,67.37
2018-11-28T19:53:18.948Z,67.03
2018-11-28T19:58:22.065Z,67.46
2018-11-28T20:03:25.180Z,67.53
2018-11-28T20:20:14.062Z,68.96
2018-11-28T20:25:18.561Z,69.37
2018-11-28T20:30:29.780Z,69.77
2018-11-28T20:35:32.933Z,70.69
2018-11-28T20:40:37.345Z,70.91
2018-11-28T20:47:45.061Z,71.84
2018-11-28T20:52:54.906Z,72.70
2018-11-28T20:58:12.105Z,73.27
2018-11-28T21:03:15.327Z,73.10
2018-11-28T21:08:18.493Z,73.46
2018-11-28T21:13:21.602Z,74.05
2018-11-28T21:18:24.665Z,74.65
2018-11-28T21:23:27.805Z,74.64
2018-11-28T21:28:30.936Z,75.26
2018-11-28T21:33:34.136Z,75.38
2018-11-28T21:38:37.289Z,75.73
2018-11-28T21:43:40.506Z,75.85
2018-11-28T21:48:43.731Z,76.63
2018-11-28T21:53:46.975Z,75.88
2018-11-28T21:58:50.132Z,75.63
2018-11-28T22:03:53.196Z,75.53
2018-11-28T22:09:03.949Z,75.34
2018-11-28T22:19:47.305Z,74.86
2018-11-28T22:24:50.382Z,74.55
2018-11-28T22:29:53.460Z,74.44
2018-11-28T22:34:56.547Z,74.35
2018-11-28T22:39:59.601Z,74.42
2018-11-28T22:45:02.770Z,74.91
2018-11-28T22:50:07.236Z,75.21
2018-11-28T22:55:13.100Z,75.34
2018-11-28T23:00:24.432Z,75.59
2018-11-28T23:05:42.247Z,75.60
2018-11-28T23:10:45.535Z,75.57
2018-11-28T23:15:48.643Z,75.90
2018-11-28T23:20:51.765Z,76.40
2018-11-28T23:25:54.816Z,75.79
2018-11-28T23:30:57.865Z,76.10
2018-11-28T23:36:00.952Z,76.41
2018-11-28T23:41:04.037Z,76.34
2018-11-28T23:46:07.165Z,76.83
2018-11-28T23:51:10.235Z,76.45
2018-11-28T23:56:13.302Z,76.80
